Temp: 17.9°C   Baro: 1015.4mb
  Wind: 2.0mph   Dir: WSW (237°)
  Rain: 0.6mm (0.0mm/hr)
  Solar: 200W/m2  Hum: 62%
 
Bath Spa Weather Station Historical Data
Daily Summary for September 16, 2020 Units:  Both    English   Metric
Daily Weekly Monthly Yearly Custom
  High: Low: Average:
Temperature: 81.4 °F /  27.4 °C 57.6 °F /  14.2 °C 66.6 °F /  19.2 °C
Dew Point: 64.7 °F /  18.2 °C 56.7 °F /  13.7 °C 60.2 °F /  15.7 °C
Humidity: 97% 53.2% 80%
Wind Speed: 8.7mph /  14km/h - 3.3mph /  5.3km/h
Wind Gust: 22mph /  35.4km/h - -
Wind- - SSE
Pressure: 30.37 in /  1028.3 hPa 30.15 in /  1020.9 hPa -
Precipitation: 0.00 in /  0 mm    
Historical Graphs
 
 
Tabular Data for September 16, 2020
Time Temperature Dew Point Pressure Wind Wind Speed Wind Gust Humidity Rainfall Rate (Hourly) solar
00:04 59.7 °F /  15.4 °C 57.9 °F /  14.4 °C 30.15in /  1020.9hPa WNW 1.8mph /  2.9km/h 5mph /  8km/h 91% 0.00in /  0mm 0 W/m2
00:09 59.6 °F /  15.3 °C 57.8 °F /  14.3 °C 30.15in /  1020.9hPa WNW 1.3mph /  2.1km/h 3mph /  4.8km/h 91% 0.00in /  0mm 0 W/m2
00:14 59.6 °F /  15.3 °C 57.8 °F /  14.3 °C 30.15in /  1020.9hPa WNW 0.7mph /  1.1km/h 2mph /  3.2km/h 91% 0.00in /  0mm 0 W/m2
00:19 59.5 °F /  15.3 °C 58 °F /  14.4 °C 30.15in /  1020.9hPa WNW 1.1mph /  1.8km/h 3mph /  4.8km/h 91.6% 0.00in /  0mm 0 W/m2
00:24 59.5 °F /  15.3 °C 58.1 °F /  14.5 °C 30.15in /  1020.9hPa WNW 1.7mph /  2.7km/h 4mph /  6.4km/h 92% 0.00in /  0mm 0 W/m2
00:29 59.5 °F /  15.3 °C 58.1 °F /  14.5 °C 30.15in /  1020.9hPa WNW 1.2mph /  1.9km/h 4mph /  6.4km/h 92% 0.00in /  0mm 0 W/m2
00:34 59.5 °F /  15.3 °C 58.1 °F /  14.5 °C 30.15in /  1020.9hPa WNW 1.1mph /  1.8km/h 4mph /  6.4km/h 92% 0.00in /  0mm 0 W/m2
00:39 59.5 °F /  15.3 °C 58.1 °F /  14.5 °C 30.15in /  1020.9hPa WNW 2mph /  3.2km/h 3mph /  4.8km/h 92% 0.00in /  0mm 0 W/m2
00:44 59.4 °F /  15.2 °C 58.3 °F /  14.6 °C 30.15in /  1020.9hPa WNW 2mph /  3.2km/h 3mph /  4.8km/h 92.8% 0.00in /  0mm 0 W/m2
00:49 59.4 °F /  15.2 °C 58.3 °F /  14.6 °C 30.15in /  1020.9hPa WNW 2.2mph /  3.5km/h 4mph /  6.4km/h 93% 0.00in /  0mm 0 W/m2
00:54 59.4 °F /  15.2 °C 58.3 °F /  14.6 °C 30.15in /  1020.9hPa WNW 2.5mph /  4km/h 4mph /  6.4km/h 93% 0.00in /  0mm 0 W/m2
00:59 59.4 °F /  15.2 °C 58.3 °F /  14.6 °C 30.15in /  1020.9hPa WNW 2.1mph /  3.4km/h 4mph /  6.4km/h 93% 0.00in /  0mm 0 W/m2
01:04 59.2 °F /  15.1 °C 58.1 °F /  14.5 °C 30.15in /  1020.9hPa WNW 1.3mph /  2.1km/h 3mph /  4.8km/h 93% 0.00in /  0mm 0 W/m2
01:09 59.2 °F /  15.1 °C 58.1 °F /  14.5 °C 30.15in /  1020.9hPa WNW 2.5mph /  4km/h 4mph /  6.4km/h 93% 0.00in /  0mm 0 W/m2
01:14 59.2 °F /  15.1 °C 58.1 °F /  14.5 °C 30.15in /  1020.9hPa West 2.2mph /  3.5km/h 4mph /  6.4km/h 93% 0.00in /  0mm 0 W/m2
01:19 59.2 °F /  15.1 °C 58.3 °F /  14.6 °C 30.15in /  1020.9hPa West 0.9mph /  1.4km/h 4mph /  6.4km/h 93.8% 0.00in /  0mm 0 W/m2
01:24 59.3 °F /  15.2 °C 58.4 °F /  14.7 °C 30.15in /  1020.9hPa West 1.2mph /  1.9km/h 5mph /  8km/h 94% 0.00in /  0mm 0 W/m2
01:29 59.2 °F /  15.1 °C 58.3 °F /  14.6 °C 30.15in /  1020.9hPa West 2.8mph /  4.5km/h 5mph /  8km/h 94% 0.00in /  0mm 0 W/m2
01:34 59.2 °F /  15.1 °C 58.3 °F /  14.6 °C 30.15in /  1020.9hPa West 2.4mph /  3.9km/h 6mph /  9.7km/h 94% 0.00in /  0mm 0 W/m2
01:39 59.2 °F /  15.1 °C 58.3 °F /  14.6 °C 30.15in /  1020.9hPa West 2.5mph /  4km/h 7mph /  11.3km/h 94% 0.00in /  0mm 0 W/m2
01:44 59.1 °F /  15.1 °C 58.2 °F /  14.6 °C 30.15in /  1020.9hPa West 2mph /  3.2km/h 7mph /  11.3km/h 94% 0.00in /  0mm 0 W/m2
01:49 59 °F /  15 °C 58.1 °F /  14.5 °C 30.15in /  1020.9hPa West 3.8mph /  6.1km/h 6mph /  9.7km/h 94% 0.00in /  0mm 0 W/m2
01:54 58.8 °F /  14.9 °C 57.9 °F /  14.4 °C 30.15in /  1020.9hPa WNW 2.2mph /  3.5km/h 6mph /  9.7km/h 94% 0.00in /  0mm 0 W/m2
01:59 58.8 °F /  14.9 °C 57.9 °F /  14.4 °C 30.16in /  1021.2hPa West 2.5mph /  4km/h 6mph /  9.7km/h 94% 0.00in /  0mm 0 W/m2
02:04 58.8 °F /  14.9 °C 57.9 °F /  14.4 °C 30.16in /  1021.2hPa WNW 2mph /  3.2km/h 6mph /  9.7km/h 94% 0.00in /  0mm 0 W/m2
02:09 58.8 °F /  14.9 °C 57.9 °F /  14.4 °C 30.16in /  1021.2hPa WNW 2.3mph /  3.7km/h 5mph /  8km/h 94% 0.00in /  0mm 0 W/m2
02:14 58.8 °F /  14.9 °C 57.9 °F /  14.4 °C 30.16in /  1021.2hPa West 0.6mph /  1km/h 4mph /  6.4km/h 94% 0.00in /  0mm 0 W/m2
02:19 58.8 °F /  14.9 °C 57.9 °F /  14.4 °C 30.16in /  1021.2hPa West 1.2mph /  1.9km/h 4mph /  6.4km/h 94% 0.00in /  0mm 0 W/m2
02:24 58.9 °F /  14.9 °C 58 °F /  14.4 °C 30.16in /  1021.2hPa West 0.2mph /  0.3km/h 2mph /  3.2km/h 94% 0.00in /  0mm 0 W/m2
02:29 59 °F /  15 °C 58.3 °F /  14.6 °C 30.16in /  1021.2hPa West 1mph /  1.6km/h 3mph /  4.8km/h 94.5% 0.00in /  0mm 0 W/m2
02:34 59.1 °F /  15.1 °C 58.5 °F /  14.7 °C 30.16in /  1021.2hPa West 0.9mph /  1.4km/h 4mph /  6.4km/h 95% 0.00in /  0mm 0 W/m2
02:39 59 °F /  15 °C 58.5 °F /  14.7 °C 30.16in /  1021.2hPa West 1.7mph /  2.7km/h 4mph /  6.4km/h 95% 0.00in /  0mm 0 W/m2
02:44 59 °F /  15 °C 58.5 °F /  14.7 °C 30.16in /  1021.2hPa West 0.4mph /  0.6km/h 2mph /  3.2km/h 95% 0.00in /  0mm 0 W/m2
02:49 59 °F /  15 °C 58.5 °F /  14.7 °C 30.16in /  1021.2hPa West 1mph /  1.6km/h 4mph /  6.4km/h 95% 0.00in /  0mm 0 W/m2
02:54 59 °F /  15 °C 58.5 °F /  14.7 °C 30.16in /  1021.2hPa West 1.2mph /  1.9km/h 3mph /  4.8km/h 95% 0.00in /  0mm 0 W/m2
02:59 59.1 °F /  15.1 °C 58.6 °F /  14.8 °C 30.16in /  1021.2hPa West 2.6mph /  4.2km/h 4mph /  6.4km/h 95% 0.00in /  0mm 0 W/m2
03:04 59 °F /  15 °C 58.5 °F /  14.7 °C 30.16in /  1021.2hPa West 3.1mph /  5km/h 5mph /  8km/h 95% 0.00in /  0mm 0 W/m2
03:08 59 °F /  15 °C 58.5 °F /  14.7 °C 30.15in /  1020.9hPa West 1.7mph /  2.7km/h 4mph /  6.4km/h 95% 0.00in /  0mm 0 W/m2
03:14 58.9 °F /  14.9 °C 58.4 °F /  14.7 °C 30.15in /  1020.9hPa West 2.4mph /  3.9km/h 5mph /  8km/h 95% 0.00in /  0mm 0 W/m2
03:19 59 °F /  15 °C 58.5 °F /  14.7 °C 30.16in /  1021.2hPa West 2.7mph /  4.3km/h 5mph /  8km/h 95% 0.00in /  0mm 0 W/m2
03:24 59 °F /  15 °C 58.5 °F /  14.7 °C 30.16in /  1021.2hPa WNW 3.4mph /  5.5km/h 5mph /  8km/h 95% 0.00in /  0mm 0 W/m2
03:29 59.1 °F /  15.1 °C 58.5 °F /  14.7 °C 30.16in /  1021.2hPa WNW 3.6mph /  5.8km/h 6mph /  9.7km/h 95% 0.00in /  0mm 0 W/m2
03:34 59.1 °F /  15.1 °C 58.6 °F /  14.8 °C 30.16in /  1021.2hPa WNW 1.9mph /  3.1km/h 6mph /  9.7km/h 95% 0.00in /  0mm 0 W/m2
03:39 59.2 °F /  15.1 °C 58.6 °F /  14.8 °C 30.16in /  1021.2hPa WNW 1.6mph /  2.6km/h 4mph /  6.4km/h 95% 0.00in /  0mm 0 W/m2
03:44 59.2 °F /  15.1 °C 58.6 °F /  14.8 °C 30.16in /  1021.2hPa WNW 1.7mph /  2.7km/h 4mph /  6.4km/h 95% 0.00in /  0mm 0 W/m2
03:49 59.2 °F /  15.1 °C 58.6 °F /  14.8 °C 30.16in /  1021.2hPa WNW 1.6mph /  2.6km/h 5mph /  8km/h 95% 0.00in /  0mm 0 W/m2
03:54 59.2 °F /  15.1 °C 58.6 °F /  14.8 °C 30.16in /  1021.2hPa WNW 1.1mph /  1.8km/h 4mph /  6.4km/h 95% 0.00in /  0mm 0 W/m2
03:59 59.1 °F /  15.1 °C 58.5 °F /  14.7 °C 30.16in /  1021.2hPa WNW 1.7mph /  2.7km/h 6mph /  9.7km/h 95% 0.00in /  0mm 0 W/m2
04:04 59 °F /  15 °C 58.5 °F /  14.7 °C 30.16in /  1021.2hPa WNW 1.7mph /  2.7km/h 4mph /  6.4km/h 95% 0.00in /  0mm 0 W/m2
04:09 59 °F /  15 °C 58.5 °F /  14.7 °C 30.16in /  1021.2hPa WNW 1.4mph /  2.3km/h 4mph /  6.4km/h 95% 0.00in /  0mm 0 W/m2
04:14 59 °F /  15 °C 58.8 °F /  14.9 °C 30.16in /  1021.2hPa WNW 1.6mph /  2.6km/h 3mph /  4.8km/h 96% 0.00in /  0mm 0 W/m2
04:19 59 °F /  15 °C 58.7 °F /  14.8 °C 30.17in /  1021.6hPa WNW 2.2mph /  3.5km/h 5mph /  8km/h 95.8% 0.00in /  0mm 0 W/m2
04:24 58.8 °F /  14.9 °C 58.6 °F /  14.8 °C 30.17in /  1021.6hPa WNW 4mph /  6.4km/h 6mph /  9.7km/h 96% 0.00in /  0mm 0 W/m2
04:29 58.9 °F /  14.9 °C 58.7 °F /  14.8 °C 30.17in /  1021.6hPa WNW 4mph /  6.4km/h 5mph /  8km/h 96% 0.00in /  0mm 0 W/m2
04:34 58.8 °F /  14.9 °C 58.6 °F /  14.8 °C 30.16in /  1021.2hPa WNW 3mph /  4.8km/h 6mph /  9.7km/h 96% 0.00in /  0mm 0 W/m2
04:39 58.8 °F /  14.9 °C 58.6 °F /  14.8 °C 30.16in /  1021.2hPa West 1.7mph /  2.7km/h 4mph /  6.4km/h 96% 0.00in /  0mm 0 W/m2
04:44 59 °F /  15 °C 58.8 °F /  14.9 °C 30.16in /  1021.2hPa West 0.9mph /  1.4km/h 4mph /  6.4km/h 96% 0.00in /  0mm 0 W/m2
04:49 59 °F /  15 °C 58.8 °F /  14.9 °C 30.16in /  1021.2hPa West 0.8mph /  1.3km/h 2mph /  3.2km/h 96% 0.00in /  0mm 0 W/m2
04:54 59 °F /  15 °C 58.8 °F /  14.9 °C 30.16in /  1021.2hPa Calm     96% 0.00in /  0mm 0 W/m2
04:59 59 °F /  15 °C 58.8 °F /  14.9 °C 30.16in /  1021.2hPa Calm     96% 0.00in /  0mm 0 W/m2
05:04 59 °F /  15 °C 58.8 °F /  14.9 °C 30.16in /  1021.2hPa Calm     96% 0.00in /  0mm 0 W/m2
05:09 59 °F /  15 °C 58.8 °F /  14.9 °C 30.16in /  1021.2hPa Calm   1mph /  1.6km/h 96% 0.00in /  0mm 0 W/m2
05:14 59 °F /  15 °C 58.8 °F /  14.9 °C 30.16in /  1021.2hPa West 2.2mph /  3.5km/h 4mph /  6.4km/h 96% 0.00in /  0mm 0 W/m2
05:19 58.8 °F /  14.9 °C 58.6 °F /  14.8 °C 30.16in /  1021.2hPa West 0.8mph /  1.3km/h 5mph /  8km/h 96% 0.00in /  0mm 0 W/m2
05:24 58.8 °F /  14.9 °C 58.6 °F /  14.8 °C 30.16in /  1021.2hPa West 2.3mph /  3.7km/h 3mph /  4.8km/h 96% 0.00in /  0mm 0 W/m2
05:29 58.6 °F /  14.8 °C 58.5 °F /  14.7 °C 30.16in /  1021.2hPa West 0.2mph /  0.3km/h 3mph /  4.8km/h 96% 0.00in /  0mm 0 W/m2
05:34 58.6 °F /  14.8 °C 58.5 °F /  14.7 °C 30.17in /  1021.6hPa West 2.6mph /  4.2km/h 5mph /  8km/h 96% 0.00in /  0mm 0 W/m2
05:39 58.5 °F /  14.7 °C 58.3 °F /  14.6 °C 30.17in /  1021.6hPa WNW 1.6mph /  2.6km/h 5mph /  8km/h 96% 0.00in /  0mm 0 W/m2
05:44 58.3 °F /  14.6 °C 58.2 °F /  14.6 °C 30.17in /  1021.6hPa WNW 2.5mph /  4km/h 5mph /  8km/h 96% 0.00in /  0mm 0 W/m2
05:49 58.3 °F /  14.6 °C 58.1 °F /  14.5 °C 30.17in /  1021.6hPa WNW 1.1mph /  1.8km/h 4mph /  6.4km/h 96% 0.00in /  0mm 0 W/m2
05:54 58.1 °F /  14.5 °C 57.9 °F /  14.4 °C 30.17in /  1021.6hPa WNW 2mph /  3.2km/h 3mph /  4.8km/h 96% 0.00in /  0mm 0 W/m2
05:59 57.9 °F /  14.4 °C 57.7 °F /  14.3 °C 30.17in /  1021.6hPa WNW 1.3mph /  2.1km/h 3mph /  4.8km/h 96% 0.00in /  0mm 0 W/m2
06:04 57.9 °F /  14.4 °C 57.7 °F /  14.3 °C 30.17in /  1021.6hPa West 2.5mph /  4km/h 4mph /  6.4km/h 96% 0.00in /  0mm 0 W/m2
06:09 57.9 °F /  14.4 °C 57.7 °F /  14.3 °C 30.17in /  1021.6hPa West 2.4mph /  3.9km/h 4mph /  6.4km/h 96% 0.00in /  0mm 0 W/m2
06:14 57.8 °F /  14.3 °C 57.7 °F /  14.3 °C 30.17in /  1021.6hPa West 2.1mph /  3.4km/h 4mph /  6.4km/h 96% 0.00in /  0mm 0 W/m2
06:19 57.7 °F /  14.3 °C 57.6 °F /  14.2 °C 30.17in /  1021.6hPa West 1.2mph /  1.9km/h 3mph /  4.8km/h 96% 0.00in /  0mm 0 W/m2
06:24 57.7 °F /  14.3 °C 57.6 °F /  14.2 °C 30.17in /  1021.6hPa West 1.2mph /  1.9km/h 3mph /  4.8km/h 96% 0.00in /  0mm 0 W/m2
06:29 57.7 °F /  14.3 °C 57.6 °F /  14.2 °C 30.17in /  1021.6hPa West 2.4mph /  3.9km/h 4mph /  6.4km/h 96% 0.00in /  0mm 0 W/m2
06:34 57.6 °F /  14.2 °C 57.4 °F /  14.1 °C 30.17in /  1021.6hPa West 2.1mph /  3.4km/h 4mph /  6.4km/h 96% 0.00in /  0mm 0 W/m2
06:39 57.6 °F /  14.2 °C 57.4 °F /  14.1 °C 30.17in /  1021.6hPa West 1.7mph /  2.7km/h 5mph /  8km/h 96% 0.00in /  0mm 0 W/m2
06:44 57.6 °F /  14.2 °C 57.4 °F /  14.1 °C 30.18in /  1021.9hPa West 2mph /  3.2km/h 5mph /  8km/h 96% 0.00in /  0mm 0 W/m2
06:49 57.6 °F /  14.2 °C 57.4 °F /  14.1 °C 30.18in /  1021.9hPa West 2.4mph /  3.9km/h 4mph /  6.4km/h 96% 0.00in /  0mm 0 W/m2
06:54 57.6 °F /  14.2 °C 57.4 °F /  14.1 °C 30.18in /  1021.9hPa WNW 1mph /  1.6km/h 4mph /  6.4km/h 96% 0.00in /  0mm 0 W/m2
06:59 57.6 °F /  14.2 °C 57.4 °F /  14.1 °C 30.18in /  1021.9hPa West 1.6mph /  2.6km/h 4mph /  6.4km/h 96% 0.00in /  0mm 5 W/m2
07:04 57.6 °F /  14.2 °C 57.4 °F /  14.1 °C 30.18in /  1021.9hPa West 1mph /  1.6km/h 3mph /  4.8km/h 96% 0.00in /  0mm 5 W/m2
07:09 57.7 °F /  14.3 °C 57.5 °F /  14.2 °C 30.18in /  1021.9hPa West 1.8mph /  2.9km/h 4mph /  6.4km/h 96% 0.00in /  0mm 9 W/m2
07:14 57.7 °F /  14.3 °C 57.6 °F /  14.2 °C 30.18in /  1021.9hPa West 1mph /  1.6km/h 3mph /  4.8km/h 96% 0.00in /  0mm 11 W/m2
07:19 57.7 °F /  14.3 °C 57.6 °F /  14.2 °C 30.19in /  1022.2hPa West 1.5mph /  2.4km/h 4mph /  6.4km/h 96% 0.00in /  0mm 12 W/m2
07:24 57.7 °F /  14.3 °C 57.6 °F /  14.2 °C 30.19in /  1022.2hPa West 0.5mph /  0.8km/h 3mph /  4.8km/h 96% 0.00in /  0mm 16 W/m2
07:29 57.7 °F /  14.3 °C 57.6 °F /  14.2 °C 30.19in /  1022.2hPa West 1.2mph /  1.9km/h 3mph /  4.8km/h 96% 0.00in /  0mm 16 W/m2
07:34 57.7 °F /  14.3 °C 57.6 °F /  14.2 °C 30.19in /  1022.2hPa West 0.4mph /  0.6km/h 3mph /  4.8km/h 96% 0.00in /  0mm 19 W/m2
07:39 57.7 °F /  14.3 °C 57.6 °F /  14.2 °C 30.19in /  1022.2hPa WSW 2.6mph /  4.2km/h 5mph /  8km/h 96% 0.00in /  0mm 23 W/m2
07:44 57.7 °F /  14.3 °C 57.6 °F /  14.2 °C 30.20in /  1022.6hPa WSW 1.2mph /  1.9km/h 4mph /  6.4km/h 96% 0.00in /  0mm 25 W/m2
07:49 57.7 °F /  14.3 °C 57.6 °F /  14.2 °C 30.20in /  1022.6hPa WSW 1mph /  1.6km/h 3mph /  4.8km/h 96% 0.00in /  0mm 37 W/m2
07:54 57.9 °F /  14.4 °C 57.7 °F /  14.3 °C 30.20in /  1022.6hPa WSW 0.4mph /  0.6km/h 3mph /  4.8km/h 96% 0.00in /  0mm 35 W/m2
07:59 57.9 °F /  14.4 °C 57.7 °F /  14.3 °C 30.20in /  1022.6hPa WSW 1.2mph /  1.9km/h 3mph /  4.8km/h 96% 0.00in /  0mm 42 W/m2
08:04 57.9 °F /  14.4 °C 57.7 °F /  14.3 °C 30.20in /  1022.6hPa WSW 0.2mph /  0.3km/h 2mph /  3.2km/h 96% 0.00in /  0mm 47 W/m2
08:09 57.9 °F /  14.4 °C 57.7 °F /  14.3 °C 30.20in /  1022.6hPa WSW 0.6mph /  1km/h 2mph /  3.2km/h 96% 0.00in /  0mm 56 W/m2
08:14 57.8 °F /  14.3 °C 57.7 °F /  14.3 °C 30.20in /  1022.6hPa WSW 0.9mph /  1.4km/h 4mph /  6.4km/h 96% 0.00in /  0mm 72 W/m2
08:19 57.8 °F /  14.3 °C 57.7 °F /  14.3 °C 30.20in /  1022.6hPa West 1.6mph /  2.6km/h 5mph /  8km/h 96% 0.00in /  0mm 74 W/m2
08:24 57.8 °F /  14.3 °C 57.7 °F /  14.3 °C 30.21in /  1022.9hPa West 1mph /  1.6km/h 4mph /  6.4km/h 96.4% 0.00in /  0mm 97 W/m2
08:29 57.9 °F /  14.4 °C 57.7 °F /  14.3 °C 30.21in /  1022.9hPa West 2mph /  3.2km/h 4mph /  6.4km/h 96% 0.00in /  0mm 102 W/m2
08:34 58.1 °F /  14.5 °C 57.9 °F /  14.4 °C 30.21in /  1022.9hPa West 2mph /  3.2km/h 5mph /  8km/h 96% 0.00in /  0mm 109 W/m2
08:39 58.5 °F /  14.7 °C 58.4 °F /  14.7 °C 30.21in /  1022.9hPa Calm   1mph /  1.6km/h 96.8% 0.00in /  0mm 127 W/m2
08:44 58.6 °F /  14.8 °C 58.5 °F /  14.7 °C 30.21in /  1022.9hPa WNW 0.4mph /  0.6km/h 3mph /  4.8km/h 96.2% 0.00in /  0mm 141 W/m2
08:49 58.8 °F /  14.9 °C 58.8 °F /  14.9 °C 30.21in /  1022.9hPa Calm     96.8% 0.00in /  0mm 146 W/m2
08:54 59.2 °F /  15.1 °C 59.2 °F /  15.1 °C 30.21in /  1022.9hPa Calm     96.8% 0.00in /  0mm 155 W/m2
08:59 59.1 °F /  15.1 °C 59.1 °F /  15.1 °C 30.22in /  1023.2hPa Calm     97% 0.00in /  0mm 162 W/m2
09:04 59.5 °F /  15.3 °C 59.5 °F /  15.3 °C 30.22in /  1023.2hPa WNW 0.2mph /  0.3km/h 1mph /  1.6km/h 96.8% 0.00in /  0mm 181 W/m2
09:09 59.5 °F /  15.3 °C 59.5 °F /  15.3 °C 30.22in /  1023.2hPa Calm   1mph /  1.6km/h 96.4% 0.00in /  0mm 192 W/m2
09:14 59.8 °F /  15.4 °C 59.7 °F /  15.4 °C 30.22in /  1023.2hPa Calm     96.6% 0.00in /  0mm 200 W/m2
09:19 60.2 °F /  15.7 °C 60 °F /  15.6 °C 30.22in /  1023.2hPa Calm     96% 0.00in /  0mm 211 W/m2
09:24 60.2 °F /  15.7 °C 60.1 °F /  15.6 °C 30.22in /  1023.2hPa WNW 0.4mph /  0.6km/h 3mph /  4.8km/h 96% 0.00in /  0mm 229 W/m2
09:29 60.6 °F /  15.9 °C 60.4 °F /  15.8 °C 30.22in /  1023.2hPa WNW 0.4mph /  0.6km/h 4mph /  6.4km/h 96% 0.00in /  0mm 239 W/m2
09:34 61.1 °F /  16.2 °C 60.9 °F /  16.1 °C 30.22in /  1023.2hPa WNW 0.7mph /  1.1km/h 4mph /  6.4km/h 96% 0.00in /  0mm 253 W/m2
09:39 61.1 °F /  16.2 °C 60.7 °F /  15.9 °C 30.22in /  1023.2hPa WSW 2mph /  3.2km/h 4mph /  6.4km/h 95.6% 0.00in /  0mm 269 W/m2
09:44 61.4 °F /  16.3 °C 60.9 °F /  16.1 °C 30.22in /  1023.2hPa WSW 2mph /  3.2km/h 4mph /  6.4km/h 95% 0.00in /  0mm 283 W/m2
09:49 61.9 °F /  16.6 °C 61.1 °F /  16.2 °C 30.22in /  1023.2hPa WSW 2.1mph /  3.4km/h 5mph /  8km/h 94.4% 0.00in /  0mm 294 W/m2
09:54 62.5 °F /  16.9 °C 61.5 °F /  16.4 °C 30.22in /  1023.2hPa West 0.4mph /  0.6km/h 5mph /  8km/h 93.2% 0.00in /  0mm 304 W/m2
09:59 63.1 °F /  17.3 °C 61.4 °F /  16.3 °C 30.22in /  1023.2hPa West 0.2mph /  0.3km/h 3mph /  4.8km/h 91.2% 0.00in /  0mm 315 W/m2
10:04 63.6 °F /  17.6 °C 61.3 °F /  16.3 °C 30.22in /  1023.2hPa West 0.6mph /  1km/h 4mph /  6.4km/h 89.2% 0.00in /  0mm 329 W/m2
10:09 64 °F /  17.8 °C 61.3 °F /  16.3 °C 30.22in /  1023.2hPa West 1mph /  1.6km/h 3mph /  4.8km/h 87.8% 0.00in /  0mm 341 W/m2
10:14 64.6 °F /  18.1 °C 61.3 °F /  16.3 °C 30.23in /  1023.6hPa West 1.3mph /  2.1km/h 3mph /  4.8km/h 86.4% 0.00in /  0mm 366 W/m2
10:19 64.9 °F /  18.3 °C 61.2 °F /  16.2 °C 30.23in /  1023.6hPa WSW 0.8mph /  1.3km/h 4mph /  6.4km/h 85.4% 0.00in /  0mm 367 W/m2
10:24 65.4 °F /  18.6 °C 61.4 °F /  16.3 °C 30.23in /  1023.6hPa WSW 0.4mph /  0.6km/h 2mph /  3.2km/h 84.4% 0.00in /  0mm 374 W/m2
10:29 65.8 °F /  18.8 °C 61.5 °F /  16.4 °C 30.23in /  1023.6hPa WSW 0.6mph /  1km/h 3mph /  4.8km/h 83.4% 0.00in /  0mm 387 W/m2
10:34 66.8 °F /  19.3 °C 61.9 °F /  16.6 °C 30.23in /  1023.6hPa WSW 0.8mph /  1.3km/h 2mph /  3.2km/h 81.8% 0.00in /  0mm 397 W/m2
10:39 67.4 °F /  19.7 °C 62.1 °F /  16.7 °C 30.23in /  1023.6hPa South 0.6mph /  1km/h 3mph /  4.8km/h 80.8% 0.00in /  0mm 404 W/m2
10:44 68.4 °F /  20.2 °C 62.4 °F /  16.9 °C 30.23in /  1023.6hPa South 0.2mph /  0.3km/h 1mph /  1.6km/h 78.6% 0.00in /  0mm 417 W/m2
10:49 68.9 °F /  20.5 °C 62.1 °F /  16.7 °C 30.23in /  1023.6hPa Calm     76.5% 0.00in /  0mm 425 W/m2
10:54 70.2 °F /  21.2 °C 62.5 °F /  16.9 °C 30.23in /  1023.6hPa ESE 2mph /  3.2km/h 6mph /  9.7km/h 74.4% 0.00in /  0mm 436 W/m2
10:59 70.5 °F /  21.4 °C 62 °F /  16.7 °C 30.23in /  1023.6hPa ENE 3.8mph /  6.1km/h 8mph /  12.9km/h 72.2% 0.00in /  0mm 441 W/m2
11:04 71.2 °F /  21.8 °C 62.3 °F /  16.8 °C 30.23in /  1023.6hPa ENE 3.7mph /  6km/h 8mph /  12.9km/h 71.4% 0.00in /  0mm 455 W/m2
11:09 72 °F /  22.2 °C 62.3 °F /  16.8 °C 30.23in /  1023.6hPa East 2.1mph /  3.4km/h 6mph /  9.7km/h 69.4% 0.00in /  0mm 462 W/m2
11:14 72.2 °F /  22.3 °C 62.2 °F /  16.8 °C 30.23in /  1023.6hPa East 1.8mph /  2.9km/h 6mph /  9.7km/h 68.6% 0.00in /  0mm 469 W/m2
11:19 72.3 °F /  22.4 °C 62.1 °F /  16.7 °C 30.23in /  1023.6hPa ENE 0.6mph /  1km/h 5mph /  8km/h 68.2% 0.00in /  0mm 485 W/m2
11:24 73.2 °F /  22.9 °C 62.2 °F /  16.8 °C 30.23in /  1023.6hPa ESE 3.2mph /  5.1km/h 5mph /  8km/h 66.5% 0.00in /  0mm 487 W/m2
11:29 73.8 °F /  23.2 °C 62.7 °F /  17.1 °C 30.23in /  1023.6hPa SE 3.2mph /  5.1km/h 6mph /  9.7km/h 66.4% 0.00in /  0mm 497 W/m2
11:34 73.5 °F /  23.1 °C 63.5 °F /  17.5 °C 30.23in /  1023.6hPa SE 2mph /  3.2km/h 8mph /  12.9km/h 68.8% 0.00in /  0mm 503 W/m2
11:39 73.6 °F /  23.1 °C 63.7 °F /  17.6 °C 30.23in /  1023.6hPa ESE 2.9mph /  4.7km/h 7mph /  11.3km/h 69.2% 0.00in /  0mm 504 W/m2
11:44 73.2 °F /  22.9 °C 62.9 °F /  17.2 °C 30.23in /  1023.6hPa ESE 5mph /  8km/h 11mph /  17.7km/h 68% 0.00in /  0mm 512 W/m2
11:49 73.2 °F /  22.9 °C 63.1 °F /  17.3 °C 30.23in /  1023.6hPa ESE 5.5mph /  8.9km/h 9mph /  14.5km/h 68.2% 0.00in /  0mm 515 W/m2
11:54 73.1 °F /  22.8 °C 63.2 °F /  17.3 °C 30.23in /  1023.6hPa SE 5.4mph /  8.7km/h 12mph /  19.3km/h 69% 0.00in /  0mm 526 W/m2
11:59 74 °F /  23.3 °C 63.5 °F /  17.5 °C 30.23in /  1023.6hPa East 5mph /  8km/h 12mph /  19.3km/h 68% 0.00in /  0mm 533 W/m2
12:04 75 °F /  23.9 °C 64.2 °F /  17.9 °C 30.23in /  1023.6hPa ESE 3.6mph /  5.8km/h 9mph /  14.5km/h 67% 0.00in /  0mm 538 W/m2
12:09 75.2 °F /  24 °C 63.6 °F /  17.6 °C 30.23in /  1023.6hPa East 2.4mph /  3.9km/h 9mph /  14.5km/h 65.4% 0.00in /  0mm 538 W/m2
12:14 75.8 °F /  24.3 °C 64.1 °F /  17.8 °C 30.23in /  1023.6hPa East 2.7mph /  4.3km/h 7mph /  11.3km/h 65% 0.00in /  0mm 543 W/m2
12:19 76.8 °F /  24.9 °C 64.3 °F /  17.9 °C 30.23in /  1023.6hPa East 2.5mph /  4km/h 8mph /  12.9km/h 63.4% 0.00in /  0mm 547 W/m2
12:24 77 °F /  25 °C 64.2 °F /  17.9 °C 30.23in /  1023.6hPa East 4.9mph /  7.9km/h 9mph /  14.5km/h 63% 0.00in /  0mm 550 W/m2
12:29 76.2 °F /  24.6 °C 63.7 °F /  17.6 °C 30.22in /  1023.2hPa ESE 8.7mph /  14km/h 11mph /  17.7km/h 63.4% 0.00in /  0mm 554 W/m2
12:34 76 °F /  24.4 °C 64.2 °F /  17.9 °C 30.22in /  1023.2hPa East 4mph /  6.4km/h 10mph /  16.1km/h 64.8% 0.00in /  0mm 557 W/m2
12:39 76.8 °F /  24.9 °C 64 °F /  17.8 °C 30.22in /  1023.2hPa East 3.8mph /  6.1km/h 11mph /  17.7km/h 63% 0.00in /  0mm 561 W/m2
12:44 76.8 °F /  24.9 °C 63.9 °F /  17.7 °C 30.22in /  1023.2hPa East 3.5mph /  5.6km/h 11mph /  17.7km/h 62.6% 0.00in /  0mm 563 W/m2
12:49 77.3 °F /  25.2 °C 64.2 °F /  17.9 °C 30.22in /  1023.2hPa East 5.7mph /  9.2km/h 13mph /  20.9km/h 62.3% 0.00in /  0mm 566 W/m2
12:54 77.5 °F /  25.3 °C 63.9 °F /  17.7 °C 30.22in /  1023.2hPa East 5.6mph /  9km/h 11mph /  17.7km/h 61.2% 0.00in /  0mm 566 W/m2
12:59 77.5 °F /  25.3 °C 63.9 °F /  17.7 °C 30.22in /  1023.2hPa ENE 7.8mph /  12.6km/h 13mph /  20.9km/h 61% 0.00in /  0mm 571 W/m2
13:04 77.4 °F /  25.2 °C 63.5 °F /  17.5 °C 30.22in /  1023.2hPa ESE 2.5mph /  4km/h 13mph /  20.9km/h 60.4% 0.00in /  0mm 575 W/m2
13:09 77.6 °F /  25.3 °C 62.6 °F /  17 °C 30.22in /  1023.2hPa East 6.2mph /  10km/h 15mph /  24.1km/h 58.2% 0.00in /  0mm 575 W/m2
13:14 77.9 °F /  25.5 °C 62.6 °F /  17 °C 30.22in /  1023.2hPa ENE 6.2mph /  10km/h 11mph /  17.7km/h 57.6% 0.00in /  0mm 575 W/m2
13:18 78 °F /  25.6 °C 62.6 °F /  17 °C 30.22in /  1023.2hPa NE 3.7mph /  6km/h 9mph /  14.5km/h 57.5% 0.00in /  0mm 577 W/m2
13:24 79 °F /  26.1 °C 63.2 °F /  17.3 °C 30.22in /  1023.2hPa East 4.1mph /  6.6km/h 7mph /  11.3km/h 56.6% 0.00in /  0mm 577 W/m2
13:29 79.4 °F /  26.3 °C 63 °F /  17.2 °C 30.22in /  1023.2hPa East 4.8mph /  7.7km/h 14mph /  22.5km/h 55.6% 0.00in /  0mm 571 W/m2
13:34 79.2 °F /  26.2 °C 62.7 °F /  17.1 °C 30.22in /  1023.2hPa ENE 6.2mph /  10km/h 10mph /  16.1km/h 55.4% 0.00in /  0mm 573 W/m2
13:39 79.1 °F /  26.2 °C 62.9 °F /  17.2 °C 30.22in /  1023.2hPa ESE 3.1mph /  5km/h 12mph /  19.3km/h 56% 0.00in /  0mm 575 W/m2
13:44 79.5 °F /  26.4 °C 63.2 °F /  17.3 °C 30.22in /  1023.2hPa ENE 5mph /  8km/h 14mph /  22.5km/h 55.8% 0.00in /  0mm 571 W/m2
13:49 79.3 °F /  26.3 °C 63 °F /  17.2 °C 30.22in /  1023.2hPa East 3.8mph /  6.1km/h 14mph /  22.5km/h 55.8% 0.00in /  0mm 573 W/m2
13:54 79.7 °F /  26.5 °C 62.7 °F /  17.1 °C 30.22in /  1023.2hPa SE 3.2mph /  5.1km/h 7mph /  11.3km/h 54.6% 0.00in /  0mm 571 W/m2
13:59 80.1 °F /  26.7 °C 63.4 °F /  17.4 °C 30.22in /  1023.2hPa ESE 3.9mph /  6.3km/h 11mph /  17.7km/h 55.2% 0.00in /  0mm 571 W/m2
14:04 80.6 °F /  27 °C 63.6 °F /  17.6 °C 30.22in /  1023.2hPa East 4.5mph /  7.2km/h 13mph /  20.9km/h 54.6% 0.00in /  0mm 566 W/m2
14:09 80.6 °F /  27 °C 63 °F /  17.2 °C 30.22in /  1023.2hPa ESE 6.3mph /  10.1km/h 13mph /  20.9km/h 53.4% 0.00in /  0mm 563 W/m2
14:14 80 °F /  26.7 °C 62.7 °F /  17.1 °C 30.22in /  1023.2hPa ESE 6mph /  9.7km/h 15mph /  24.1km/h 53.8% 0.00in /  0mm 561 W/m2
14:19 80.2 °F /  26.8 °C 62.8 °F /  17.1 °C 30.22in /  1023.2hPa East 5.7mph /  9.2km/h 11mph /  17.7km/h 53.8% 0.00in /  0mm 557 W/m2
14:24 80.3 °F /  26.8 °C 62.9 °F /  17.2 °C 30.22in /  1023.2hPa ESE 5.2mph /  8.4km/h 11mph /  17.7km/h 53.8% 0.00in /  0mm 555 W/m2
14:29 81.1 °F /  27.3 °C 63.5 °F /  17.5 °C 30.22in /  1023.2hPa ENE 2.5mph /  4km/h 10mph /  16.1km/h 53.8% 0.00in /  0mm 541 W/m2
14:34 80.5 °F /  26.9 °C 63 °F /  17.2 °C 30.22in /  1023.2hPa ENE 5.6mph /  9km/h 10mph /  16.1km/h 53.6% 0.00in /  0mm 534 W/m2
14:39 80.1 °F /  26.7 °C 62.9 °F /  17.2 °C 30.22in /  1023.2hPa East 4.5mph /  7.2km/h 15mph /  24.1km/h 54.2% 0.00in /  0mm 533 W/m2
14:44 80.3 °F /  26.8 °C 63.5 °F /  17.5 °C 30.22in /  1023.2hPa ESE 3mph /  4.8km/h 10mph /  16.1km/h 55% 0.00in /  0mm 527 W/m2
14:49 81.4 °F /  27.4 °C 63.5 °F /  17.5 °C 30.22in /  1023.2hPa ESE 1.7mph /  2.7km/h 7mph /  11.3km/h 53.2% 0.00in /  0mm 524 W/m2
14:54 80.9 °F /  27.2 °C 63.6 °F /  17.6 °C 30.22in /  1023.2hPa NE 5.6mph /  9km/h 10mph /  16.1km/h 54.2% 0.00in /  0mm 512 W/m2
14:59 80.3 °F /  26.8 °C 63.5 °F /  17.5 °C 30.22in /  1023.2hPa NE 5.5mph /  8.9km/h 14mph /  22.5km/h 55% 0.00in /  0mm 506 W/m2
15:04 79.5 °F /  26.4 °C 63.2 °F /  17.3 °C 30.22in /  1023.2hPa ENE 7.2mph /  11.6km/h 14mph /  22.5km/h 55.8% 0.00in /  0mm 499 W/m2
15:08 79.5 °F /  26.4 °C 63.3 °F /  17.4 °C 30.22in /  1023.2hPa NE 2.7mph /  4.3km/h 10mph /  16.1km/h 56% 0.00in /  0mm 492 W/m2
15:14 80.4 °F /  26.9 °C 63.6 °F /  17.6 °C 30.22in /  1023.2hPa ENE 1.7mph /  2.7km/h 5mph /  8km/h 55% 0.00in /  0mm 478 W/m2
15:19 80.8 °F /  27.1 °C 63.7 °F /  17.6 °C 30.22in /  1023.2hPa ESE 2.5mph /  4km/h 7mph /  11.3km/h 54.6% 0.00in /  0mm 475 W/m2
15:24 80.5 °F /  26.9 °C 63.7 °F /  17.6 °C 30.22in /  1023.2hPa ESE 5.4mph /  8.7km/h 11mph /  17.7km/h 55% 0.00in /  0mm 471 W/m2
15:29 80.8 °F /  27.1 °C 63.6 °F /  17.6 °C 30.22in /  1023.2hPa SE 3.3mph /  5.3km/h 9mph /  14.5km/h 54.4% 0.00in /  0mm 469 W/m2
15:34 80.8 °F /  27.1 °C 63.5 °F /  17.5 °C 30.22in /  1023.2hPa ESE 4.9mph /  7.9km/h 10mph /  16.1km/h 54% 0.00in /  0mm 452 W/m2
15:39 81 °F /  27.2 °C 63.8 °F /  17.7 °C 30.22in /  1023.2hPa ENE 4.3mph /  6.9km/h 8mph /  12.9km/h 54.4% 0.00in /  0mm 445 W/m2
15:44 80.1 °F /  26.7 °C 63.5 °F /  17.5 °C 30.22in /  1023.2hPa NE 5.6mph /  9km/h 9mph /  14.5km/h 55.4% 0.00in /  0mm 429 W/m2
15:49 79.4 °F /  26.3 °C 63.7 °F /  17.6 °C 30.22in /  1023.2hPa ENE 5.8mph /  9.3km/h 10mph /  16.1km/h 56.8% 0.00in /  0mm 418 W/m2
15:54 79.8 °F /  26.6 °C 63.7 °F /  17.6 °C 30.22in /  1023.2hPa NNE 4.8mph /  7.7km/h 9mph /  14.5km/h 56.3% 0.00in /  0mm 408 W/m2
15:59 79.4 °F /  26.3 °C 63.3 °F /  17.4 °C 30.22in /  1023.2hPa NE 4.7mph /  7.6km/h 15mph /  24.1km/h 56.2% 0.00in /  0mm 404 W/m2
16:04 79 °F /  26.1 °C 63.3 °F /  17.4 °C 30.22in /  1023.2hPa ENE 7.6mph /  12.2km/h 15mph /  24.1km/h 57% 0.00in /  0mm 396 W/m2
16:09 79.2 °F /  26.2 °C 63.4 °F /  17.4 °C 30.22in /  1023.2hPa NE 5.9mph /  9.5km/h 16mph /  25.7km/h 56.8% 0.00in /  0mm 383 W/m2
16:14 78.6 °F /  25.9 °C 63 °F /  17.2 °C 30.22in /  1023.2hPa NE 7.6mph /  12.2km/h 16mph /  25.7km/h 57% 0.00in /  0mm 376 W/m2
16:19 78.5 °F /  25.8 °C 62.8 °F /  17.1 °C 30.22in /  1023.2hPa NNE 4.5mph /  7.2km/h 13mph /  20.9km/h 57% 0.00in /  0mm 362 W/m2
16:24 78.4 °F /  25.8 °C 62.7 °F /  17.1 °C 30.22in /  1023.2hPa ENE 7.4mph /  11.9km/h 13mph /  20.9km/h 57% 0.00in /  0mm 343 W/m2
16:29 78.2 °F /  25.7 °C 63 °F /  17.2 °C 30.23in /  1023.6hPa NNE 5.2mph /  8.4km/h 11mph /  17.7km/h 57.8% 0.00in /  0mm 339 W/m2
16:34 78.3 °F /  25.7 °C 63.1 °F /  17.3 °C 30.23in /  1023.6hPa ENE 7.2mph /  11.6km/h 13mph /  20.9km/h 58% 0.00in /  0mm 336 W/m2
16:39 78.3 °F /  25.7 °C 63.1 °F /  17.3 °C 30.23in /  1023.6hPa ENE 6.4mph /  10.3km/h 14mph /  22.5km/h 58% 0.00in /  0mm 316 W/m2
16:44 78.5 °F /  25.8 °C 63.4 °F /  17.4 °C 30.22in /  1023.2hPa ENE 4.1mph /  6.6km/h 11mph /  17.7km/h 58% 0.00in /  0mm 309 W/m2
16:49 78.4 °F /  25.8 °C 63.1 °F /  17.3 °C 30.22in /  1023.2hPa ENE 4.2mph /  6.8km/h 15mph /  24.1km/h 57.6% 0.00in /  0mm 301 W/m2
16:54 78.5 °F /  25.8 °C 63.4 °F /  17.4 °C 30.22in /  1023.2hPa ENE 5.7mph /  9.2km/h 14mph /  22.5km/h 58% 0.00in /  0mm 281 W/m2
16:59 78.5 °F /  25.8 °C 63.5 °F /  17.5 °C 30.22in /  1023.2hPa NE 7.5mph /  12.1km/h 14mph /  22.5km/h 58.2% 0.00in /  0mm 267 W/m2
17:04 78.4 °F /  25.8 °C 63.7 °F /  17.6 °C 30.22in /  1023.2hPa ENE 4mph /  6.4km/h 11mph /  17.7km/h 59% 0.00in /  0mm 258 W/m2
17:09 78.5 °F /  25.8 °C 63.8 °F /  17.7 °C 30.23in /  1023.6hPa NE 4.9mph /  7.9km/h 12mph /  19.3km/h 59% 0.00in /  0mm 244 W/m2
17:14 78.1 °F /  25.6 °C 63.8 °F /  17.7 °C 30.23in /  1023.6hPa NE 4.3mph /  6.9km/h 10mph /  16.1km/h 59.8% 0.00in /  0mm 230 W/m2
17:19 78.1 °F /  25.6 °C 64.1 °F /  17.8 °C 30.23in /  1023.6hPa East 4.2mph /  6.8km/h 8mph /  12.9km/h 60.3% 0.00in /  0mm 220 W/m2
17:24 78 °F /  25.6 °C 64.3 °F /  17.9 °C 30.23in /  1023.6hPa NE 5.4mph /  8.7km/h 13mph /  20.9km/h 61% 0.00in /  0mm 209 W/m2
17:29 78.1 °F /  25.6 °C 64.6 °F /  18.1 °C 30.23in /  1023.6hPa ENE 6.3mph /  10.1km/h 10mph /  16.1km/h 61.6% 0.00in /  0mm 195 W/m2
17:34 77.8 °F /  25.4 °C 64.7 °F /  18.2 °C 30.23in /  1023.6hPa ENE 5.4mph /  8.7km/h 11mph /  17.7km/h 62% 0.00in /  0mm 186 W/m2
17:39 77.4 °F /  25.2 °C 64.4 °F /  18 °C 30.23in /  1023.6hPa ENE 7.2mph /  11.6km/h 13mph /  20.9km/h 62.6% 0.00in /  0mm 171 W/m2
17:44 76.6 °F /  24.8 °C 64.2 °F /  17.9 °C 30.23in /  1023.6hPa NNE 4.7mph /  7.6km/h 13mph /  20.9km/h 63.8% 0.00in /  0mm 156 W/m2
17:49 76.3 °F /  24.6 °C 64.2 °F /  17.9 °C 30.23in /  1023.6hPa ENE 6.3mph /  10.1km/h 14mph /  22.5km/h 64.2% 0.00in /  0mm 146 W/m2
17:54 76.3 °F /  24.6 °C 64.1 °F /  17.8 °C 30.24in /  1023.9hPa ENE 5.6mph /  9km/h 9mph /  14.5km/h 64.2% 0.00in /  0mm 135 W/m2
17:59 76.3 °F /  24.6 °C 64 °F /  17.8 °C 30.24in /  1023.9hPa ENE 4mph /  6.4km/h 10mph /  16.1km/h 64% 0.00in /  0mm 123 W/m2
18:04 76.3 °F /  24.6 °C 64 °F /  17.8 °C 30.24in /  1023.9hPa East 4.7mph /  7.6km/h 10mph /  16.1km/h 64% 0.00in /  0mm 111 W/m2
18:09 76.1 °F /  24.5 °C 64.3 °F /  17.9 °C 30.24in /  1023.9hPa ENE 2.8mph /  4.5km/h 8mph /  12.9km/h 64.8% 0.00in /  0mm 98 W/m2
18:14 75.9 °F /  24.4 °C 64.2 °F /  17.9 °C 30.24in /  1023.9hPa NE 4.6mph /  7.4km/h 15mph /  24.1km/h 65% 0.00in /  0mm 90 W/m2
18:19 75.6 °F /  24.2 °C 63.8 °F /  17.7 °C 30.24in /  1023.9hPa NE 3.4mph /  5.5km/h 14mph /  22.5km/h 64.8% 0.00in /  0mm 77 W/m2
18:24 75.1 °F /  23.9 °C 63.5 °F /  17.5 °C 30.24in /  1023.9hPa NE 5.9mph /  9.5km/h 13mph /  20.9km/h 65.2% 0.00in /  0mm 63 W/m2
18:29 74.6 °F /  23.7 °C 63.5 °F /  17.5 °C 30.24in /  1023.9hPa ENE 5.8mph /  9.3km/h 10mph /  16.1km/h 66.4% 0.00in /  0mm 53 W/m2
18:34 74.1 °F /  23.4 °C 63.3 °F /  17.4 °C 30.25in /  1024.3hPa NE 3.5mph /  5.6km/h 13mph /  20.9km/h 67% 0.00in /  0mm 40 W/m2
18:39 73.8 °F /  23.2 °C 63 °F /  17.2 °C 30.25in /  1024.3hPa East 5.1mph /  8.2km/h 10mph /  16.1km/h 67% 0.00in /  0mm 40 W/m2
18:44 73.6 °F /  23.1 °C 63 °F /  17.2 °C 30.25in /  1024.3hPa ENE 5.2mph /  8.4km/h 10mph /  16.1km/h 67.4% 0.00in /  0mm 28 W/m2
18:49 73.3 °F /  22.9 °C 63.2 °F /  17.3 °C 30.25in /  1024.3hPa ENE 5mph /  8km/h 13mph /  20.9km/h 68.5% 0.00in /  0mm 26 W/m2
18:54 72.9 °F /  22.7 °C 63 °F /  17.2 °C 30.25in /  1024.3hPa ENE 5.8mph /  9.3km/h 14mph /  22.5km/h 69% 0.00in /  0mm 23 W/m2
18:59 72.4 °F /  22.4 °C 62.9 °F /  17.2 °C 30.25in /  1024.3hPa ENE 4mph /  6.4km/h 14mph /  22.5km/h 70% 0.00in /  0mm 19 W/m2
19:04 72.1 °F /  22.3 °C 62.5 °F /  16.9 °C 30.25in /  1024.3hPa ENE 4.7mph /  7.6km/h 11mph /  17.7km/h 70% 0.00in /  0mm 16 W/m2
19:09 71.9 °F /  22.2 °C 62.3 °F /  16.8 °C 30.26in /  1024.6hPa East 2mph /  3.2km/h 18mph /  29km/h 70% 0.00in /  0mm 14 W/m2
19:14 71.5 °F /  21.9 °C 62.3 °F /  16.8 °C 30.26in /  1024.6hPa ENE 5.1mph /  8.2km/h 11mph /  17.7km/h 70.6% 0.00in /  0mm 11 W/m2
19:19 71.2 °F /  21.8 °C 62.2 °F /  16.8 °C 30.26in /  1024.6hPa ENE 5mph /  8km/h 13mph /  20.9km/h 71% 0.00in /  0mm 7 W/m2
19:24 70.9 °F /  21.6 °C 62 °F /  16.7 °C 30.27in /  1024.9hPa ENE 5.5mph /  8.9km/h 9mph /  14.5km/h 71% 0.00in /  0mm 0 W/m2
19:29 70.6 °F /  21.4 °C 61.7 °F /  16.5 °C 30.27in /  1024.9hPa NE 7mph /  11.3km/h 17mph /  27.4km/h 71.4% 0.00in /  0mm 0 W/m2
19:34 70.3 °F /  21.3 °C 61.7 °F /  16.5 °C 30.27in /  1024.9hPa East 4mph /  6.4km/h 11mph /  17.7km/h 72% 0.00in /  0mm 0 W/m2
19:39 70.1 °F /  21.2 °C 61.4 °F /  16.3 °C 30.27in /  1024.9hPa ENE 4.1mph /  6.6km/h 14mph /  22.5km/h 72% 0.00in /  0mm 0 W/m2
19:44 69.8 °F /  21 °C 61.2 °F /  16.2 °C 30.27in /  1024.9hPa ENE 4.4mph /  7.1km/h 14mph /  22.5km/h 72% 0.00in /  0mm 0 W/m2
19:49 69.5 °F /  20.8 °C 60.9 °F /  16.1 °C 30.27in /  1024.9hPa East 5.8mph /  9.3km/h 15mph /  24.1km/h 72% 0.00in /  0mm 0 W/m2
19:54 69.3 °F /  20.7 °C 61.2 °F /  16.2 °C 30.28in /  1025.3hPa East 4.9mph /  7.9km/h 16mph /  25.7km/h 73% 0.00in /  0mm 0 W/m2
19:59 68.9 °F /  20.5 °C 60.8 °F /  16 °C 30.28in /  1025.3hPa ENE 4.8mph /  7.7km/h 16mph /  25.7km/h 73% 0.00in /  0mm 0 W/m2
20:04 68.6 °F /  20.3 °C 60.5 °F /  15.8 °C 30.28in /  1025.3hPa ENE 5.3mph /  8.5km/h 14mph /  22.5km/h 73% 0.00in /  0mm 0 W/m2
20:09 68.5 °F /  20.3 °C 60.4 °F /  15.8 °C 30.29in /  1025.6hPa ESE 2.9mph /  4.7km/h 9mph /  14.5km/h 73% 0.00in /  0mm 0 W/m2
20:14 68.3 °F /  20.2 °C 60.4 °F /  15.8 °C 30.29in /  1025.6hPa ENE 4.3mph /  6.9km/h 12mph /  19.3km/h 73.8% 0.00in /  0mm 0 W/m2
20:19 67.8 °F /  19.9 °C 60.1 °F /  15.6 °C 30.29in /  1025.6hPa ENE 7.4mph /  11.9km/h 16mph /  25.7km/h 74% 0.00in /  0mm 0 W/m2
20:24 67.3 °F /  19.6 °C 59.6 °F /  15.3 °C 30.30in /  1026hPa East 6.8mph /  10.9km/h 18mph /  29km/h 74% 0.00in /  0mm 0 W/m2
20:29 66.8 °F /  19.3 °C 59.1 °F /  15.1 °C 30.30in /  1026hPa NE 7mph /  11.3km/h 21mph /  33.8km/h 74% 0.00in /  0mm 0 W/m2
20:34 66.4 °F /  19.1 °C 58.7 °F /  14.8 °C 30.30in /  1026hPa ENE 8.2mph /  13.2km/h 17mph /  27.4km/h 74.3% 0.00in /  0mm 0 W/m2
20:39 66 °F /  18.9 °C 58.7 °F /  14.8 °C 30.30in /  1026hPa East 7.2mph /  11.6km/h 16mph /  25.7km/h 75% 0.00in /  0mm 0 W/m2
20:44 65.7 °F /  18.7 °C 58.5 °F /  14.7 °C 30.31in /  1026.3hPa East 5mph /  8km/h 15mph /  24.1km/h 75% 0.00in /  0mm 0 W/m2
20:49 65.5 °F /  18.6 °C 58.3 °F /  14.6 °C 30.31in /  1026.3hPa ENE 3.6mph /  5.8km/h 12mph /  19.3km/h 75% 0.00in /  0mm 0 W/m2
20:54 65.1 °F /  18.4 °C 57.9 °F /  14.4 °C 30.31in /  1026.3hPa East 6.4mph /  10.3km/h 22mph /  35.4km/h 75% 0.00in /  0mm 0 W/m2
20:59 64.8 °F /  18.2 °C 57.9 °F /  14.4 °C 30.31in /  1026.3hPa ENE 5.1mph /  8.2km/h 22mph /  35.4km/h 76% 0.00in /  0mm 0 W/m2
21:04 64.6 °F /  18.1 °C 57.7 °F /  14.3 °C 30.32in /  1026.6hPa ENE 5mph /  8km/h 13mph /  20.9km/h 76% 0.00in /  0mm 0 W/m2
21:09 64.1 °F /  17.8 °C 57.7 °F /  14.3 °C 30.32in /  1026.6hPa East 5.8mph /  9.3km/h 13mph /  20.9km/h 77.2% 0.00in /  0mm 0 W/m2
21:14 63.8 °F /  17.7 °C 57.7 °F /  14.3 °C 30.32in /  1026.6hPa East 3.7mph /  6km/h 11mph /  17.7km/h 78% 0.00in /  0mm 0 W/m2
21:19 63.5 °F /  17.5 °C 57.6 °F /  14.2 °C 30.32in /  1026.6hPa NE 5mph /  8km/h 10mph /  16.1km/h 78.6% 0.00in /  0mm 0 W/m2
21:24 63.2 °F /  17.3 °C 57.5 °F /  14.2 °C 30.32in /  1026.6hPa ENE 4.8mph /  7.7km/h 14mph /  22.5km/h 79% 0.00in /  0mm 0 W/m2
21:29 63.1 °F /  17.3 °C 57.6 °F /  14.2 °C 30.32in /  1026.6hPa ENE 6.8mph /  10.9km/h 16mph /  25.7km/h 79.6% 0.00in /  0mm 0 W/m2
21:34 63 °F /  17.2 °C 57.6 °F /  14.2 °C 30.33in /  1027hPa East 7.6mph /  12.2km/h 14mph /  22.5km/h 80% 0.00in /  0mm 0 W/m2
21:39 63 °F /  17.2 °C 57.8 °F /  14.3 °C 30.33in /  1027hPa ENE 6mph /  9.7km/h 14mph /  22.5km/h 80.6% 0.00in /  0mm 0 W/m2
21:44 62.8 °F /  17.1 °C 57.7 °F /  14.3 °C 30.33in /  1027hPa East 4.9mph /  7.9km/h 16mph /  25.7km/h 81% 0.00in /  0mm 0 W/m2
21:49 62.8 °F /  17.1 °C 57.7 °F /  14.3 °C 30.33in /  1027hPa East 7mph /  11.3km/h 13mph /  20.9km/h 81% 0.00in /  0mm 0 W/m2
21:54 62.6 °F /  17 °C 57.6 °F /  14.2 °C 30.33in /  1027hPa East 8.5mph /  13.7km/h 14mph /  22.5km/h 81% 0.00in /  0mm 0 W/m2
21:59 62.4 °F /  16.9 °C 57.5 °F /  14.2 °C 30.34in /  1027.3hPa East 5.8mph /  9.3km/h 21mph /  33.8km/h 81.2% 0.00in /  0mm 0 W/m2
22:04 62.2 °F /  16.8 °C 57.6 °F /  14.2 °C 30.34in /  1027.3hPa NE 6.8mph /  10.9km/h 13mph /  20.9km/h 82% 0.00in /  0mm 0 W/m2
22:09 62.1 °F /  16.7 °C 57.4 °F /  14.1 °C 30.34in /  1027.3hPa ENE 4.5mph /  7.2km/h 11mph /  17.7km/h 82% 0.00in /  0mm 0 W/m2
22:14 62.1 °F /  16.7 °C 57.4 °F /  14.1 °C 30.35in /  1027.7hPa ENE 6.6mph /  10.6km/h 15mph /  24.1km/h 82% 0.00in /  0mm 0 W/m2
22:19 61.9 °F /  16.6 °C 57.2 °F /  14 °C 30.35in /  1027.7hPa ENE 7mph /  11.3km/h 17mph /  27.4km/h 82% 0.00in /  0mm 0 W/m2
22:24 61.6 °F /  16.4 °C 56.9 °F /  13.8 °C 30.35in /  1027.7hPa East 6.5mph /  10.5km/h 14mph /  22.5km/h 82% 0.00in /  0mm 0 W/m2
22:29 61.5 °F /  16.4 °C 57 °F /  13.9 °C 30.35in /  1027.7hPa ENE 5.9mph /  9.5km/h 15mph /  24.1km/h 82.6% 0.00in /  0mm 0 W/m2
22:34 61.3 °F /  16.3 °C 57 °F /  13.9 °C 30.36in /  1028hPa NE 6.4mph /  10.3km/h 16mph /  25.7km/h 83% 0.00in /  0mm 0 W/m2
22:39 61.3 °F /  16.3 °C 57 °F /  13.9 °C 30.36in /  1028hPa East 3.6mph /  5.8km/h 8mph /  12.9km/h 83% 0.00in /  0mm 0 W/m2
22:44 61.3 °F /  16.3 °C 57 °F /  13.9 °C 30.36in /  1028hPa East 2.5mph /  4km/h 7mph /  11.3km/h 83% 0.00in /  0mm 0 W/m2
22:49 61.2 °F /  16.2 °C 56.8 °F /  13.8 °C 30.36in /  1028hPa East 4mph /  6.4km/h 10mph /  16.1km/h 83% 0.00in /  0mm 0 W/m2
22:54 61.2 °F /  16.2 °C 56.8 °F /  13.8 °C 30.36in /  1028hPa East 4.5mph /  7.2km/h 9mph /  14.5km/h 83% 0.00in /  0mm 0 W/m2
22:59 61.2 °F /  16.2 °C 56.8 °F /  13.8 °C 30.36in /  1028hPa ESE 1.2mph /  1.9km/h 9mph /  14.5km/h 83% 0.00in /  0mm 0 W/m2
23:04 61.2 °F /  16.2 °C 56.8 °F /  13.8 °C 30.36in /  1028hPa ENE 0.6mph /  1km/h 4mph /  6.4km/h 83% 0.00in /  0mm 0 W/m2
23:09 61.2 °F /  16.2 °C 56.8 °F /  13.8 °C 30.36in /  1028hPa East 3.2mph /  5.1km/h 10mph /  16.1km/h 83% 0.00in /  0mm 0 W/m2
23:14 61.2 °F /  16.2 °C 57 °F /  13.9 °C 30.36in /  1028hPa ENE 6.4mph /  10.3km/h 11mph /  17.7km/h 83.4% 0.00in /  0mm 0 W/m2
23:19 61 °F /  16.1 °C 57 °F /  13.9 °C 30.36in /  1028hPa ENE 6.4mph /  10.3km/h 11mph /  17.7km/h 84% 0.00in /  0mm 0 W/m2
23:24 61 °F /  16.1 °C 57 °F /  13.9 °C 30.37in /  1028.3hPa ENE 3.1mph /  5km/h 9mph /  14.5km/h 84% 0.00in /  0mm 0 W/m2
23:29 61 °F /  16.1 °C 57 °F /  13.9 °C 30.37in /  1028.3hPa NE 1.9mph /  3.1km/h 9mph /  14.5km/h 84% 0.00in /  0mm 0 W/m2
23:34 61 °F /  16.1 °C 57 °F /  13.9 °C 30.37in /  1028.3hPa ENE 5.4mph /  8.7km/h 12mph /  19.3km/h 84% 0.00in /  0mm 0 W/m2
23:39 61 °F /  16.1 °C 57 °F /  13.9 °C 30.37in /  1028.3hPa East 2mph /  3.2km/h 9mph /  14.5km/h 84% 0.00in /  0mm 0 W/m2
23:44 60.9 °F /  16.1 °C 56.9 °F /  13.8 °C 30.37in /  1028.3hPa ENE 5.5mph /  8.9km/h 12mph /  19.3km/h 84% 0.00in /  0mm 0 W/m2
23:49 60.8 °F /  16 °C 56.8 °F /  13.8 °C 30.37in /  1028.3hPa ENE 5.2mph /  8.4km/h 10mph /  16.1km/h 84% 0.00in /  0mm 0 W/m2
23:54 60.6 °F /  15.9 °C 56.7 °F /  13.7 °C 30.37in /  1028.3hPa East 3.5mph /  5.6km/h 13mph /  20.9km/h 84% 0.00in /  0mm 0 W/m2
23:59 60.6 °F /  15.9 °C 56.7 °F /  13.7 °C 30.37in /  1028.3hPa SE 3.1mph /  5km/h 13mph /  20.9km/h 84% 0.00in /  0mm 0 W/m2
Bath Spa Weather
Compliments of Weather Underground - 2 mb